Coober Pedy, Australia

3:12 PM ACDT on January 18, 2017 (GMT +1030)
Coober Pedy | | Change Station

Elev 738 ft 29.04 °S, 134.72 °E | Updated 42 minutes ago

Scattered Clouds
Scattered Clouds
106 °F
Feels Like 110 °F
N
10
Wind Variable Wind from NNE

Today
High -- | Low -- °F
--% Chance of Precip.
Yesterday
High -- | Low -- °F
Precip. -- in
Pressure 29.74 in
Visibility 6.2 miles
Clouds Scattered Clouds 8900 ft
Heat Index 110 °F
Dew Point 64 °F
Humidity 26%
Rainfall 0.00 in
Snow Depth Not available.
6:49 AM 8:33 PM
Waning Gibbous, 67% visible
METAR YCBP 180400Z AUTO 02009KT 9999 SCT089 41/18 Q1007
Pressure 29.74 in
Visibility 6.2 miles
Clouds Scattered Clouds 8900 ft
Heat Index 110 °F
Dew Point 64 °F
Humidity 26%
Rainfall 0.00 in
Snow Depth Not available.
6:49 AM 8:33 PM
Waning Gibbous, 67% visible
METAR YCBP 180400Z AUTO 02009KT 9999 SCT089 41/18 Q1007

Get Your Daily Forecast Email!

Thanks for signing up!

Be on the lookout for a verification email in your inbox.

You'll start receiving the daily forecast at 8 AM.

×

10-Day Weather Forecast

×

Almanac

Astronomy

Jan. 18, 2017 Rise Set
Actual Time
Civil Twilight
Nautical Twilight
Astronomical Twilight
Moon
Length of Visible Light
Length of Day
Tomorrow will be .
, % of the Moon is Illuminated

Today's Extremes

Country Highs Country Lows

Community

WunderPhotos

Upload Photos

1,962,540 photos uploaded!

WunderBlog® & News

Nearby

Air Quality

  Air Quality AQ Index Pollutant
Not available.

Snow Depth

Station Depth Elevation

Earthquake Activity

City Distance Mag. Time & Date
Minimum magnitude displayed is 2.5.

Coastal Water Temperatures

Place Temperature

Stations

Nearby Weather Stations

Station Location Temp. Windchill Dew Point Humidity Wind Precip. Elev Updated Type